sensor_id;sensor_type;location;lat;lon;timestamp;P1;durP1;ratioP1;P2;durP2;ratioP2
39324;SDS011;25037;49.488;9.900;2023-08-01T00:01:18;6.30;;;2.15;;
39324;SDS011;25037;49.488;9.900;2023-08-01T00:03:44;8.02;;;2.50;;
39324;SDS011;25037;49.488;9.900;2023-08-01T00:06:11;6.45;;;2.55;;
39324;SDS011;25037;49.488;9.900;2023-08-01T00:08:38;6.25;;;2.35;;
39324;SDS011;25037;49.488;9.900;2023-08-01T00:11:04;4.57;;;2.00;;
39324;SDS011;25037;49.488;9.900;2023-08-01T00:13:31;6.57;;;2.50;;
39324;SDS011;25037;49.488;9.900;2023-08-01T00:15:58;8.45;;;2.40;;
39324;SDS011;25037;49.488;9.900;2023-08-01T00:18:27;8.63;;;2.45;;
39324;SDS011;25037;49.488;9.900;2023-08-01T00:20:54;6.57;;;2.50;;
39324;SDS011;25037;49.488;9.900;2023-08-01T00:23:20;7.60;;;2.88;;
39324;SDS011;25037;49.488;9.900;2023-08-01T00:25:47;6.47;;;2.40;;
39324;SDS011;25037;49.488;9.900;2023-08-01T00:28:18;7.43;;;2.70;;
39324;SDS011;25037;49.488;9.900;2023-08-01T00:30:44;8.93;;;2.58;;
39324;SDS011;25037;49.488;9.900;2023-08-01T00:33:11;7.25;;;2.40;;
39324;SDS011;25037;49.488;9.900;2023-08-01T00:35:39;7.20;;;2.67;;
39324;SDS011;25037;49.488;9.900;2023-08-01T00:38:05;6.20;;;2.47;;
39324;SDS011;25037;49.488;9.900;2023-08-01T00:40:33;7.75;;;2.33;;
39324;SDS011;25037;49.488;9.900;2023-08-01T00:43:00;6.13;;;3.00;;
39324;SDS011;25037;49.488;9.900;2023-08-01T00:45:27;5.55;;;2.67;;
39324;SDS011;25037;49.488;9.900;2023-08-01T00:47:54;6.63;;;2.45;;
39324;SDS011;25037;49.488;9.900;2023-08-01T00:50:22;6.47;;;2.53;;
39324;SDS011;25037;49.488;9.900;2023-08-01T00:52:50;6.30;;;2.20;;
39324;SDS011;25037;49.488;9.900;2023-08-01T00:55:18;6.40;;;2.35;;
39324;SDS011;25037;49.488;9.900;2023-08-01T00:57:45;7.82;;;2.58;;
39324;SDS011;25037;49.488;9.900;2023-08-01T01:00:13;6.88;;;3.15;;
39324;SDS011;25037;49.488;9.900;2023-08-01T01:02:40;6.82;;;2.45;;
39324;SDS011;25037;49.488;9.900;2023-08-01T01:05:07;4.38;;;2.25;;
39324;SDS011;25037;49.488;9.900;2023-08-01T01:07:34;7.40;;;3.42;;
39324;SDS011;25037;49.488;9.900;2023-08-01T01:10:01;6.47;;;3.13;;
39324;SDS011;25037;49.488;9.900;2023-08-01T01:12:28;5.53;;;2.47;;
39324;SDS011;25037;49.488;9.900;2023-08-01T01:14:54;8.15;;;2.60;;
39324;SDS011;25037;49.488;9.900;2023-08-01T01:17:21;7.53;;;2.85;;
39324;SDS011;25037;49.488;9.900;2023-08-01T01:19:48;6.85;;;2.63;;
39324;SDS011;25037;49.488;9.900;2023-08-01T01:22:14;6.45;;;2.40;;
39324;SDS011;25037;49.488;9.900;2023-08-01T01:24:42;6.18;;;2.95;;
39324;SDS011;25037;49.488;9.900;2023-08-01T01:27:11;7.07;;;2.70;;
39324;SDS011;25037;49.488;9.900;2023-08-01T01:29:38;6.78;;;2.58;;
39324;SDS011;25037;49.488;9.900;2023-08-01T01:32:08;7.60;;;2.42;;
39324;SDS011;25037;49.488;9.900;2023-08-01T01:34:35;7.97;;;2.67;;
39324;SDS011;25037;49.488;9.900;2023-08-01T01:37:02;7.68;;;2.63;;
39324;SDS011;25037;49.488;9.900;2023-08-01T01:39:29;6.85;;;2.40;;
39324;SDS011;25037;49.488;9.900;2023-08-01T01:41:56;7.25;;;2.55;;
39324;SDS011;25037;49.488;9.900;2023-08-01T01:44:23;7.13;;;2.42;;
39324;SDS011;25037;49.488;9.900;2023-08-01T01:46:49;6.05;;;2.97;;
39324;SDS011;25037;49.488;9.900;2023-08-01T01:49:16;6.10;;;2.78;;
39324;SDS011;25037;49.488;9.900;2023-08-01T01:51:43;7.85;;;2.33;;
39324;SDS011;25037;49.488;9.900;2023-08-01T01:54:09;8.00;;;2.53;;
39324;SDS011;25037;49.488;9.900;2023-08-01T01:56:36;7.13;;;2.50;;
39324;SDS011;25037;49.488;9.900;2023-08-01T01:59:03;7.03;;;2.65;;
39324;SDS011;25037;49.488;9.900;2023-08-01T02:01:30;7.10;;;2.67;;
39324;SDS011;25037;49.488;9.900;2023-08-01T02:03:56;5.05;;;2.08;;
39324;SDS011;25037;49.488;9.900;2023-08-01T02:06:23;7.82;;;2.67;;
39324;SDS011;25037;49.488;9.900;2023-08-01T02:08:50;5.15;;;2.83;;
39324;SDS011;25037;49.488;9.900;2023-08-01T02:11:16;5.07;;;2.35;;
39324;SDS011;25037;49.488;9.900;2023-08-01T02:13:43;6.05;;;2.58;;
39324;SDS011;25037;49.488;9.900;2023-08-01T02:16:10;7.75;;;2.33;;
39324;SDS011;25037;49.488;9.900;2023-08-01T02:18:37;7.55;;;2.85;;
39324;SDS011;25037;49.488;9.900;2023-08-01T02:21:03;7.47;;;2.65;;
39324;SDS011;25037;49.488;9.900;2023-08-01T02:23:30;7.30;;;2.35;;
39324;SDS011;25037;49.488;9.900;2023-08-01T02:25:58;8.02;;;3.25;;
39324;SDS011;25037;49.488;9.900;2023-08-01T02:28:25;5.78;;;2.50;;
39324;SDS011;25037;49.488;9.900;2023-08-01T02:30:52;6.35;;;2.72;;
39324;SDS011;25037;49.488;9.900;2023-08-01T02:33:19;6.60;;;2.90;;
39324;SDS011;25037;49.488;9.900;2023-08-01T02:35:46;7.82;;;3.28;;
39324;SDS011;25037;49.488;9.900;2023-08-01T02:38:13;6.78;;;2.60;;
39324;SDS011;25037;49.488;9.900;2023-08-01T02:40:40;8.90;;;3.42;;
39324;SDS011;25037;49.488;9.900;2023-08-01T02:43:07;7.22;;;3.00;;
39324;SDS011;25037;49.488;9.900;2023-08-01T02:45:33;5.72;;;2.33;;
39324;SDS011;25037;49.488;9.900;2023-08-01T02:48:00;7.60;;;2.50;;
39324;SDS011;25037;49.488;9.900;2023-08-01T02:50:27;6.97;;;2.70;;
39324;SDS011;25037;49.488;9.900;2023-08-01T02:52:53;7.15;;;3.25;;
39324;SDS011;25037;49.488;9.900;2023-08-01T02:55:20;5.93;;;2.40;;
39324;SDS011;25037;49.488;9.900;2023-08-01T02:57:47;10.02;;;2.78;;
39324;SDS011;25037;49.488;9.900;2023-08-01T03:00:13;7.70;;;3.03;;
39324;SDS011;25037;49.488;9.900;2023-08-01T03:02:40;7.82;;;2.75;;
39324;SDS011;25037;49.488;9.900;2023-08-01T03:05:07;7.85;;;2.63;;
39324;SDS011;25037;49.488;9.900;2023-08-01T03:07:35;6.13;;;2.80;;
39324;SDS011;25037;49.488;9.900;2023-08-01T03:10:02;7.22;;;2.58;;
39324;SDS011;25037;49.488;9.900;2023-08-01T03:12:29;7.35;;;2.75;;
39324;SDS011;25037;49.488;9.900;2023-08-01T03:14:57;5.05;;;2.42;;
39324;SDS011;25037;49.488;9.900;2023-08-01T03:17:23;8.70;;;2.47;;
39324;SDS011;25037;49.488;9.900;2023-08-01T03:19:50;7.47;;;2.63;;
39324;SDS011;25037;49.488;9.900;2023-08-01T03:22:17;5.53;;;2.35;;
39324;SDS011;25037;49.488;9.900;2023-08-01T03:24:43;6.70;;;2.90;;
39324;SDS011;25037;49.488;9.900;2023-08-01T03:27:10;7.13;;;2.83;;
39324;SDS011;25037;49.488;9.900;2023-08-01T03:29:37;8.15;;;2.80;;
39324;SDS011;25037;49.488;9.900;2023-08-01T03:32:04;4.57;;;2.22;;
39324;SDS011;25037;49.488;9.900;2023-08-01T03:34:31;5.63;;;2.50;;
39324;SDS011;25037;49.488;9.900;2023-08-01T03:36:58;5.40;;;2.75;;
39324;SDS011;25037;49.488;9.900;2023-08-01T03:39:24;5.68;;;2.90;;
39324;SDS011;25037;49.488;9.900;2023-08-01T03:41:51;6.28;;;2.47;;
39324;SDS011;25037;49.488;9.900;2023-08-01T03:44:18;6.38;;;3.05;;
39324;SDS011;25037;49.488;9.900;2023-08-01T03:46:44;5.93;;;2.70;;
39324;SDS011;25037;49.488;9.900;2023-08-01T03:49:12;6.20;;;2.28;;
39324;SDS011;25037;49.488;9.900;2023-08-01T03:51:40;6.70;;;2.55;;
39324;SDS011;25037;49.488;9.900;2023-08-01T03:54:06;8.70;;;3.20;;
39324;SDS011;25037;49.488;9.900;2023-08-01T03:59:10;7.10;;;2.40;;
39324;SDS011;25037;49.488;9.900;2023-08-01T04:01:42;5.05;;;3.08;;
39324;SDS011;25037;49.488;9.900;2023-08-01T04:04:09;7.90;;;3.15;;
39324;SDS011;25037;49.488;9.900;2023-08-01T04:06:36;7.53;;;2.25;;
39324;SDS011;25037;49.488;9.900;2023-08-01T04:09:03;6.47;;;2.65;;
39324;SDS011;25037;49.488;9.900;2023-08-01T04:11:32;5.68;;;2.50;;
39324;SDS011;25037;49.488;9.900;2023-08-01T04:13:59;7.57;;;2.78;;
39324;SDS011;25037;49.488;9.900;2023-08-01T04:16:26;6.43;;;2.10;;
39324;SDS011;25037;49.488;9.900;2023-08-01T04:18:52;7.65;;;2.70;;
39324;SDS011;25037;49.488;9.900;2023-08-01T04:21:19;5.40;;;2.80;;
39324;SDS011;25037;49.488;9.900;2023-08-01T04:23:46;8.40;;;2.88;;
39324;SDS011;25037;49.488;9.900;2023-08-01T04:26:12;6.28;;;2.45;;
39324;SDS011;25037;49.488;9.900;2023-08-01T04:28:39;7.90;;;2.60;;
39324;SDS011;25037;49.488;9.900;2023-08-01T04:31:06;7.13;;;3.08;;
39324;SDS011;25037;49.488;9.900;2023-08-01T04:33:33;6.55;;;2.50;;
39324;SDS011;25037;49.488;9.900;2023-08-01T04:35:59;6.90;;;2.55;;
39324;SDS011;25037;49.488;9.900;2023-08-01T04:38:26;7.00;;;2.80;;
39324;SDS011;25037;49.488;9.900;2023-08-01T04:40:53;8.35;;;2.67;;
39324;SDS011;25037;49.488;9.900;2023-08-01T04:43:19;6.97;;;2.70;;
39324;SDS011;25037;49.488;9.900;2023-08-01T04:45:46;11.27;;;2.88;;
39324;SDS011;25037;49.488;9.900;2023-08-01T04:48:13;7.80;;;2.78;;
39324;SDS011;25037;49.488;9.900;2023-08-01T04:50:39;7.43;;;3.42;;
39324;SDS011;25037;49.488;9.900;2023-08-01T04:53:06;6.85;;;2.72;;
39324;SDS011;25037;49.488;9.900;2023-08-01T04:55:33;7.75;;;2.63;;
39324;SDS011;25037;49.488;9.900;2023-08-01T04:57:59;6.30;;;2.47;;
39324;SDS011;25037;49.488;9.900;2023-08-01T05:00:26;8.38;;;2.78;;
39324;SDS011;25037;49.488;9.900;2023-08-01T05:02:53;8.30;;;2.85;;
39324;SDS011;25037;49.488;9.900;2023-08-01T05:05:19;6.35;;;2.60;;
39324;SDS011;25037;49.488;9.900;2023-08-01T05:07:46;8.05;;;2.72;;
39324;SDS011;25037;49.488;9.900;2023-08-01T05:10:13;5.53;;;2.28;;
39324;SDS011;25037;49.488;9.900;2023-08-01T05:12:42;7.57;;;2.70;;
39324;SDS011;25037;49.488;9.900;2023-08-01T05:15:09;8.50;;;2.53;;
39324;SDS011;25037;49.488;9.900;2023-08-01T05:17:36;5.22;;;2.25;;
39324;SDS011;25037;49.488;9.900;2023-08-01T05:20:03;7.30;;;2.47;;
39324;SDS011;25037;49.488;9.900;2023-08-01T05:22:30;6.43;;;2.63;;
39324;SDS011;25037;49.488;9.900;2023-08-01T05:24:57;5.70;;;2.50;;
39324;SDS011;25037;49.488;9.900;2023-08-01T05:27:24;7.07;;;2.60;;
39324;SDS011;25037;49.488;9.900;2023-08-01T05:29:50;7.00;;;3.03;;
39324;SDS011;25037;49.488;9.900;2023-08-01T05:32:17;6.68;;;2.88;;
39324;SDS011;25037;49.488;9.900;2023-08-01T05:34:44;8.15;;;2.60;;
39324;SDS011;25037;49.488;9.900;2023-08-01T05:37:11;5.28;;;2.63;;
39324;SDS011;25037;49.488;9.900;2023-08-01T05:39:37;6.35;;;2.40;;
39324;SDS011;25037;49.488;9.900;2023-08-01T05:42:04;6.97;;;2.35;;
39324;SDS011;25037;49.488;9.900;2023-08-01T05:44:34;7.38;;;2.72;;
39324;SDS011;25037;49.488;9.900;2023-08-01T05:47:01;5.05;;;2.60;;
39324;SDS011;25037;49.488;9.900;2023-08-01T05:52:02;4.88;;;2.30;;
39324;SDS011;25037;49.488;9.900;2023-08-01T05:54:29;7.35;;;2.58;;
39324;SDS011;25037;49.488;9.900;2023-08-01T05:56:55;6.65;;;2.33;;
39324;SDS011;25037;49.488;9.900;2023-08-01T05:59:22;7.45;;;2.30;;
39324;SDS011;25037;49.488;9.900;2023-08-01T06:01:49;6.15;;;2.58;;
39324;SDS011;25037;49.488;9.900;2023-08-01T06:04:16;7.13;;;2.40;;
39324;SDS011;25037;49.488;9.900;2023-08-01T06:06:43;6.53;;;1.95;;
39324;SDS011;25037;49.488;9.900;2023-08-01T06:09:09;5.75;;;2.10;;
39324;SDS011;25037;49.488;9.900;2023-08-01T06:11:36;4.65;;;2.30;;
39324;SDS011;25037;49.488;9.900;2023-08-01T06:14:03;6.07;;;2.50;;
39324;SDS011;25037;49.488;9.900;2023-08-01T06:16:30;7.32;;;2.50;;
39324;SDS011;25037;49.488;9.900;2023-08-01T06:18:56;7.93;;;2.28;;
39324;SDS011;25037;49.488;9.900;2023-08-01T06:21:24;7.90;;;2.33;;
39324;SDS011;25037;49.488;9.900;2023-08-01T06:23:51;8.25;;;2.95;;
39324;SDS011;25037;49.488;9.900;2023-08-01T06:26:18;7.47;;;2.50;;
39324;SDS011;25037;49.488;9.900;2023-08-01T06:28:44;8.30;;;3.17;;
39324;SDS011;25037;49.488;9.900;2023-08-01T06:31:11;6.40;;;2.85;;
39324;SDS011;25037;49.488;9.900;2023-08-01T06:33:38;10.52;;;2.67;;
39324;SDS011;25037;49.488;9.900;2023-08-01T06:36:05;8.45;;;2.95;;
39324;SDS011;25037;49.488;9.900;2023-08-01T06:38:31;6.68;;;2.55;;
39324;SDS011;25037;49.488;9.900;2023-08-01T06:40:58;6.60;;;3.03;;
39324;SDS011;25037;49.488;9.900;2023-08-01T06:43:25;8.63;;;2.65;;
39324;SDS011;25037;49.488;9.900;2023-08-01T06:45:52;9.38;;;2.92;;
39324;SDS011;25037;49.488;9.900;2023-08-01T06:48:18;7.10;;;2.45;;
39324;SDS011;25037;49.488;9.900;2023-08-01T06:50:45;6.63;;;2.67;;
39324;SDS011;25037;49.488;9.900;2023-08-01T06:53:12;8.05;;;3.00;;
39324;SDS011;25037;49.488;9.900;2023-08-01T06:55:38;9.80;;;2.90;;
39324;SDS011;25037;49.488;9.900;2023-08-01T06:58:05;7.45;;;2.78;;
39324;SDS011;25037;49.488;9.900;2023-08-01T07:00:32;8.65;;;2.80;;
39324;SDS011;25037;49.488;9.900;2023-08-01T07:02:59;10.23;;;3.15;;
39324;SDS011;25037;49.488;9.900;2023-08-01T07:05:26;9.32;;;3.33;;
39324;SDS011;25037;49.488;9.900;2023-08-01T07:07:52;6.38;;;2.78;;
39324;SDS011;25037;49.488;9.900;2023-08-01T07:10:19;6.15;;;2.70;;
39324;SDS011;25037;49.488;9.900;2023-08-01T07:12:46;6.68;;;2.55;;
39324;SDS011;25037;49.488;9.900;2023-08-01T07:15:13;6.68;;;3.03;;
39324;SDS011;25037;49.488;9.900;2023-08-01T07:17:40;7.18;;;2.60;;
39324;SDS011;25037;49.488;9.900;2023-08-01T07:20:07;8.82;;;2.58;;
39324;SDS011;25037;49.488;9.900;2023-08-01T07:22:34;6.20;;;2.70;;
39324;SDS011;25037;49.488;9.900;2023-08-01T07:25:01;6.78;;;2.25;;
39324;SDS011;25037;49.488;9.900;2023-08-01T07:27:28;4.75;;;1.90;;
39324;SDS011;25037;49.488;9.900;2023-08-01T07:29:54;6.57;;;2.17;;
39324;SDS011;25037;49.488;9.900;2023-08-01T07:32:21;5.80;;;2.08;;
39324;SDS011;25037;49.488;9.900;2023-08-01T07:34:48;5.88;;;1.73;;
39324;SDS011;25037;49.488;9.900;2023-08-01T07:37:14;4.75;;;1.98;;
39324;SDS011;25037;49.488;9.900;2023-08-01T07:39:41;6.00;;;1.60;;
39324;SDS011;25037;49.488;9.900;2023-08-01T07:42:08;6.78;;;2.08;;
39324;SDS011;25037;49.488;9.900;2023-08-01T07:44:34;4.40;;;2.03;;
39324;SDS011;25037;49.488;9.900;2023-08-01T07:47:01;4.43;;;1.83;;
39324;SDS011;25037;49.488;9.900;2023-08-01T07:49:28;6.82;;;2.50;;
39324;SDS011;25037;49.488;9.900;2023-08-01T07:51:55;5.13;;;2.13;;
39324;SDS011;25037;49.488;9.900;2023-08-01T07:54:21;4.80;;;1.88;;
39324;SDS011;25037;49.488;9.900;2023-08-01T07:56:50;5.25;;;2.15;;
39324;SDS011;25037;49.488;9.900;2023-08-01T07:59:17;5.43;;;2.25;;
39324;SDS011;25037;49.488;9.900;2023-08-01T08:01:43;5.78;;;1.80;;
39324;SDS011;25037;49.488;9.900;2023-08-01T08:04:10;4.88;;;1.88;;
39324;SDS011;25037;49.488;9.900;2023-08-01T08:06:37;5.00;;;2.03;;
39324;SDS011;25037;49.488;9.900;2023-08-01T08:09:05;4.60;;;1.75;;
39324;SDS011;25037;49.488;9.900;2023-08-01T08:11:31;4.18;;;1.77;;
39324;SDS011;25037;49.488;9.900;2023-08-01T08:13:59;3.67;;;1.40;;
39324;SDS011;25037;49.488;9.900;2023-08-01T08:16:26;3.92;;;1.42;;
39324;SDS011;25037;49.488;9.900;2023-08-01T08:18:53;3.47;;;1.15;;
39324;SDS011;25037;49.488;9.900;2023-08-01T08:21:20;3.03;;;1.33;;
39324;SDS011;25037;49.488;9.900;2023-08-01T08:23:46;3.08;;;1.30;;
39324;SDS011;25037;49.488;9.900;2023-08-01T08:26:13;7.30;;;1.90;;
39324;SDS011;25037;49.488;9.900;2023-08-01T08:28:40;4.97;;;1.17;;
39324;SDS011;25037;49.488;9.900;2023-08-01T08:31:08;4.75;;;1.50;;
39324;SDS011;25037;49.488;9.900;2023-08-01T08:33:35;4.13;;;1.60;;
39324;SDS011;25037;49.488;9.900;2023-08-01T08:36:02;4.00;;;1.25;;
39324;SDS011;25037;49.488;9.900;2023-08-01T08:38:28;3.88;;;2.08;;
39324;SDS011;25037;49.488;9.900;2023-08-01T08:41:00;4.25;;;1.83;;
39324;SDS011;25037;49.488;9.900;2023-08-01T08:43:33;4.93;;;1.83;;
39324;SDS011;25037;49.488;9.900;2023-08-01T08:46:01;4.78;;;2.17;;
39324;SDS011;25037;49.488;9.900;2023-08-01T08:48:29;4.35;;;1.92;;
39324;SDS011;25037;49.488;9.900;2023-08-01T08:50:57;4.28;;;2.03;;
39324;SDS011;25037;49.488;9.900;2023-08-01T08:53:25;6.40;;;2.20;;
39324;SDS011;25037;49.488;9.900;2023-08-01T08:55:52;4.05;;;1.73;;
39324;SDS011;25037;49.488;9.900;2023-08-01T08:58:19;4.65;;;1.90;;
39324;SDS011;25037;49.488;9.900;2023-08-01T09:00:46;4.95;;;1.75;;
39324;SDS011;25037;49.488;9.900;2023-08-01T09:03:14;3.72;;;1.83;;
39324;SDS011;25037;49.488;9.900;2023-08-01T09:05:45;6.00;;;2.30;;
39324;SDS011;25037;49.488;9.900;2023-08-01T09:08:19;4.68;;;2.03;;
39324;SDS011;25037;49.488;9.900;2023-08-01T09:10:47;5.05;;;1.92;;
39324;SDS011;25037;49.488;9.900;2023-08-01T09:13:14;6.32;;;1.98;;
39324;SDS011;25037;49.488;9.900;2023-08-01T09:15:41;5.25;;;2.22;;
39324;SDS011;25037;49.488;9.900;2023-08-01T09:18:11;5.00;;;1.80;;
39324;SDS011;25037;49.488;9.900;2023-08-01T09:20:45;4.05;;;1.98;;
39324;SDS011;25037;49.488;9.900;2023-08-01T09:23:13;3.10;;;1.60;;
39324;SDS011;25037;49.488;9.900;2023-08-01T09:25:40;3.75;;;1.77;;
39324;SDS011;25037;49.488;9.900;2023-08-01T09:28:20;3.58;;;1.75;;
39324;SDS011;25037;49.488;9.900;2023-08-01T09:30:50;4.75;;;1.80;;
39324;SDS011;25037;49.488;9.900;2023-08-01T09:33:18;4.50;;;1.58;;
39324;SDS011;25037;49.488;9.900;2023-08-01T09:35:45;4.45;;;1.48;;
39324;SDS011;25037;49.488;9.900;2023-08-01T09:38:12;3.45;;;1.35;;
39324;SDS011;25037;49.488;9.900;2023-08-01T09:40:42;2.85;;;1.30;;
39324;SDS011;25037;49.488;9.900;2023-08-01T09:43:13;2.95;;;1.35;;
39324;SDS011;25037;49.488;9.900;2023-08-01T09:45:53;4.57;;;1.40;;
39324;SDS011;25037;49.488;9.900;2023-08-01T09:48:24;2.67;;;0.93;;
39324;SDS011;25037;49.488;9.900;2023-08-01T09:51:03;2.92;;;1.10;;
39324;SDS011;25037;49.488;9.900;2023-08-01T09:53:46;4.10;;;1.30;;
39324;SDS011;25037;49.488;9.900;2023-08-01T09:56:20;3.22;;;1.10;;
39324;SDS011;25037;49.488;9.900;2023-08-01T09:58:53;3.45;;;1.30;;
39324;SDS011;25037;49.488;9.900;2023-08-01T10:01:24;2.92;;;1.08;;
39324;SDS011;25037;49.488;9.900;2023-08-01T10:03:52;2.80;;;1.20;;
39324;SDS011;25037;49.488;9.900;2023-08-01T10:06:20;3.92;;;1.30;;
39324;SDS011;25037;49.488;9.900;2023-08-01T10:08:51;3.95;;;1.38;;
39324;SDS011;25037;49.488;9.900;2023-08-01T10:11:22;4.20;;;1.20;;
39324;SDS011;25037;49.488;9.900;2023-08-01T10:13:49;3.80;;;1.70;;
39324;SDS011;25037;49.488;9.900;2023-08-01T10:16:16;3.05;;;1.48;;
39324;SDS011;25037;49.488;9.900;2023-08-01T10:18:44;6.55;;;1.50;;
39324;SDS011;25037;49.488;9.900;2023-08-01T10:21:15;2.83;;;1.00;;
39324;SDS011;25037;49.488;9.900;2023-08-01T10:23:43;7.05;;;1.70;;
39324;SDS011;25037;49.488;9.900;2023-08-01T10:26:11;3.40;;;1.20;;
39324;SDS011;25037;49.488;9.900;2023-08-01T10:28:40;2.67;;;0.85;;
39324;SDS011;25037;49.488;9.900;2023-08-01T10:31:12;3.15;;;1.08;;
39324;SDS011;25037;49.488;9.900;2023-08-01T10:33:41;3.00;;;1.02;;
39324;SDS011;25037;49.488;9.900;2023-08-01T10:36:17;1.95;;;0.70;;
39324;SDS011;25037;49.488;9.900;2023-08-01T10:38:52;2.78;;;1.02;;
39324;SDS011;25037;49.488;9.900;2023-08-01T10:41:28;2.47;;;0.93;;
39324;SDS011;25037;49.488;9.900;2023-08-01T10:44:09;2.08;;;0.85;;
39324;SDS011;25037;49.488;9.900;2023-08-01T10:46:48;2.13;;;0.80;;
39324;SDS011;25037;49.488;9.900;2023-08-01T10:49:15;2.03;;;0.73;;
39324;SDS011;25037;49.488;9.900;2023-08-01T10:51:43;4.75;;;0.98;;
39324;SDS011;25037;49.488;9.900;2023-08-01T10:54:18;1.92;;;0.95;;
39324;SDS011;25037;49.488;9.900;2023-08-01T10:56:49;1.90;;;0.90;;
39324;SDS011;25037;49.488;9.900;2023-08-01T10:59:20;2.38;;;0.82;;
39324;SDS011;25037;49.488;9.900;2023-08-01T11:01:48;3.13;;;1.15;;
39324;SDS011;25037;49.488;9.900;2023-08-01T11:04:19;2.25;;;1.00;;
39324;SDS011;25037;49.488;9.900;2023-08-01T11:06:50;3.55;;;1.13;;
39324;SDS011;25037;49.488;9.900;2023-08-01T11:09:26;2.05;;;0.73;;
39324;SDS011;25037;49.488;9.900;2023-08-01T11:11:57;2.42;;;0.75;;
39324;SDS011;25037;49.488;9.900;2023-08-01T11:14:25;2.08;;;0.88;;
39324;SDS011;25037;49.488;9.900;2023-08-01T11:16:56;1.45;;;0.73;;
39324;SDS011;25037;49.488;9.900;2023-08-01T11:19:24;4.80;;;0.63;;
39324;SDS011;25037;49.488;9.900;2023-08-01T11:21:55;4.85;;;1.58;;
39324;SDS011;25037;49.488;9.900;2023-08-01T11:24:23;4.28;;;1.63;;
39324;SDS011;25037;49.488;9.900;2023-08-01T11:26:51;2.80;;;1.17;;
39324;SDS011;25037;49.488;9.900;2023-08-01T11:29:20;2.60;;;0.80;;
39324;SDS011;25037;49.488;9.900;2023-08-01T11:31:57;4.20;;;1.30;;
39324;SDS011;25037;49.488;9.900;2023-08-01T11:34:25;2.08;;;0.80;;
39324;SDS011;25037;49.488;9.900;2023-08-01T11:36:52;1.83;;;0.73;;
39324;SDS011;25037;49.488;9.900;2023-08-01T11:39:19;2.05;;;1.23;;
39324;SDS011;25037;49.488;9.900;2023-08-01T11:41:48;1.50;;;0.70;;
39324;SDS011;25037;49.488;9.900;2023-08-01T11:44:15;2.15;;;0.98;;
39324;SDS011;25037;49.488;9.900;2023-08-01T11:46:42;2.47;;;1.10;;
39324;SDS011;25037;49.488;9.900;2023-08-01T11:49:13;2.33;;;1.00;;
39324;SDS011;25037;49.488;9.900;2023-08-01T11:51:44;1.90;;;0.90;;
39324;SDS011;25037;49.488;9.900;2023-08-01T11:54:15;2.45;;;1.23;;
39324;SDS011;25037;49.488;9.900;2023-08-01T11:56:44;1.88;;;0.77;;
39324;SDS011;25037;49.488;9.900;2023-08-01T11:59:12;2.22;;;1.05;;
39324;SDS011;25037;49.488;9.900;2023-08-01T12:01:45;2.38;;;0.85;;
39324;SDS011;25037;49.488;9.900;2023-08-01T12:04:26;2.15;;;0.88;;
39324;SDS011;25037;49.488;9.900;2023-08-01T12:06:53;2.25;;;0.80;;
39324;SDS011;25037;49.488;9.900;2023-08-01T12:09:20;2.83;;;1.17;;
39324;SDS011;25037;49.488;9.900;2023-08-01T12:11:47;2.58;;;0.75;;
39324;SDS011;25037;49.488;9.900;2023-08-01T12:14:41;2.20;;;0.98;;
39324;SDS011;25037;49.488;9.900;2023-08-01T12:17:21;1.92;;;0.93;;
39324;SDS011;25037;49.488;9.900;2023-08-01T12:19:50;1.80;;;0.68;;
39324;SDS011;25037;49.488;9.900;2023-08-01T12:22:17;1.90;;;1.00;;
39324;SDS011;25037;49.488;9.900;2023-08-01T12:24:44;3.40;;;0.90;;
39324;SDS011;25037;49.488;9.900;2023-08-01T12:27:11;2.33;;;1.50;;
39324;SDS011;25037;49.488;9.900;2023-08-01T12:29:38;2.13;;;0.85;;
39324;SDS011;25037;49.488;9.900;2023-08-01T12:32:05;2.67;;;0.80;;
39324;SDS011;25037;49.488;9.900;2023-08-01T12:34:35;3.03;;;0.85;;
39324;SDS011;25037;49.488;9.900;2023-08-01T12:37:02;3.53;;;1.30;;
39324;SDS011;25037;49.488;9.900;2023-08-01T12:39:32;3.75;;;1.05;;
39324;SDS011;25037;49.488;9.900;2023-08-01T12:41:59;3.42;;;1.30;;
39324;SDS011;25037;49.488;9.900;2023-08-01T12:44:28;4.00;;;1.10;;
39324;SDS011;25037;49.488;9.900;2023-08-01T12:46:55;2.05;;;0.95;;
39324;SDS011;25037;49.488;9.900;2023-08-01T12:49:22;2.30;;;1.05;;
39324;SDS011;25037;49.488;9.900;2023-08-01T12:51:49;4.47;;;1.25;;
39324;SDS011;25037;49.488;9.900;2023-08-01T12:54:17;2.80;;;0.75;;
39324;SDS011;25037;49.488;9.900;2023-08-01T12:56:44;2.33;;;0.85;;
39324;SDS011;25037;49.488;9.900;2023-08-01T12:59:12;3.03;;;0.98;;
39324;SDS011;25037;49.488;9.900;2023-08-01T13:01:38;1.75;;;0.73;;
39324;SDS011;25037;49.488;9.900;2023-08-01T13:04:06;2.05;;;0.82;;
39324;SDS011;25037;49.488;9.900;2023-08-01T13:06:32;2.22;;;0.95;;
39324;SDS011;25037;49.488;9.900;2023-08-01T13:08:59;2.70;;;1.35;;
39324;SDS011;25037;49.488;9.900;2023-08-01T13:11:26;2.03;;;0.77;;
39324;SDS011;25037;49.488;9.900;2023-08-01T13:13:53;2.95;;;0.93;;
39324;SDS011;25037;49.488;9.900;2023-08-01T13:16:19;1.85;;;0.90;;
39324;SDS011;25037;49.488;9.900;2023-08-01T13:18:46;1.95;;;0.63;;
39324;SDS011;25037;49.488;9.900;2023-08-01T13:21:14;3.65;;;1.20;;
39324;SDS011;25037;49.488;9.900;2023-08-01T13:23:41;3.50;;;1.05;;
39324;SDS011;25037;49.488;9.900;2023-08-01T13:26:08;2.47;;;0.63;;
39324;SDS011;25037;49.488;9.900;2023-08-01T13:28:35;4.07;;;0.73;;
39324;SDS011;25037;49.488;9.900;2023-08-01T13:31:02;2.40;;;0.75;;
39324;SDS011;25037;49.488;9.900;2023-08-01T13:33:29;2.22;;;1.00;;
39324;SDS011;25037;49.488;9.900;2023-08-01T13:35:55;3.25;;;1.05;;
39324;SDS011;25037;49.488;9.900;2023-08-01T13:38:23;2.22;;;0.98;;
39324;SDS011;25037;49.488;9.900;2023-08-01T13:40:50;1.67;;;0.82;;
39324;SDS011;25037;49.488;9.900;2023-08-01T13:43:17;2.17;;;0.90;;
39324;SDS011;25037;49.488;9.900;2023-08-01T13:45:44;3.55;;;0.70;;
39324;SDS011;25037;49.488;9.900;2023-08-01T13:48:11;2.95;;;0.85;;
39324;SDS011;25037;49.488;9.900;2023-08-01T13:50:38;3.47;;;1.20;;
39324;SDS011;25037;49.488;9.900;2023-08-01T13:53:04;6.07;;;0.95;;
39324;SDS011;25037;49.488;9.900;2023-08-01T13:55:34;2.60;;;1.02;;
39324;SDS011;25037;49.488;9.900;2023-08-01T13:58:00;2.75;;;1.05;;
39324;SDS011;25037;49.488;9.900;2023-08-01T14:00:27;2.72;;;0.90;;
39324;SDS011;25037;49.488;9.900;2023-08-01T14:02:54;2.53;;;1.10;;
39324;SDS011;25037;49.488;9.900;2023-08-01T14:05:24;2.20;;;0.82;;
39324;SDS011;25037;49.488;9.900;2023-08-01T14:07:52;3.58;;;1.10;;
39324;SDS011;25037;49.488;9.900;2023-08-01T14:10:20;2.38;;;0.70;;
39324;SDS011;25037;49.488;9.900;2023-08-01T14:12:48;2.15;;;0.90;;
39324;SDS011;25037;49.488;9.900;2023-08-01T14:15:15;2.35;;;1.30;;
39324;SDS011;25037;49.488;9.900;2023-08-01T14:17:41;3.03;;;1.00;;
39324;SDS011;25037;49.488;9.900;2023-08-01T14:20:08;1.92;;;1.10;;
39324;SDS011;25037;49.488;9.900;2023-08-01T14:22:35;2.28;;;1.00;;
39324;SDS011;25037;49.488;9.900;2023-08-01T14:25:03;2.53;;;1.02;;
39324;SDS011;25037;49.488;9.900;2023-08-01T14:27:31;3.50;;;1.42;;
39324;SDS011;25037;49.488;9.900;2023-08-01T14:29:57;3.63;;;1.10;;
39324;SDS011;25037;49.488;9.900;2023-08-01T14:32:24;3.17;;;1.05;;
39324;SDS011;25037;49.488;9.900;2023-08-01T14:34:51;3.17;;;1.27;;
39324;SDS011;25037;49.488;9.900;2023-08-01T14:37:18;2.92;;;1.10;;
39324;SDS011;25037;49.488;9.900;2023-08-01T14:39:44;3.05;;;0.93;;
39324;SDS011;25037;49.488;9.900;2023-08-01T14:42:11;5.65;;;1.60;;
39324;SDS011;25037;49.488;9.900;2023-08-01T14:44:38;2.92;;;0.95;;
39324;SDS011;25037;49.488;9.900;2023-08-01T14:47:05;2.35;;;1.00;;
39324;SDS011;25037;49.488;9.900;2023-08-01T14:49:31;3.17;;;1.33;;
39324;SDS011;25037;49.488;9.900;2023-08-01T14:51:58;4.47;;;1.15;;
39324;SDS011;25037;49.488;9.900;2023-08-01T14:54:25;3.15;;;1.20;;
39324;SDS011;25037;49.488;9.900;2023-08-01T14:57:05;3.83;;;1.33;;